Time;durP1;ratioP1;P1;durP2;ratioP2;P2;SDS_P1;SDS_P2;PMS_P1;PMS_P2;Temp;Humidity;BMP_temperature;BMP_pressure;BME280_temperature;BME280_humidity;BME280_pressure;Samples;Min_cycle;Max_cycle;Signal;HPM_P1;HPM_P2
2020/12/09 00:00:07;;;;;;;43.98;22.17;;;;;;;-0.66;79.49;100665.99;1770649;79;21437;-74
2020/12/09 00:02:33;;;;;;;44.98;23.00;;;;;;;-0.67;79.45;100666.81;1782894;78;21129;-74
2020/12/09 00:05:03;;;;;;;53.63;24.07;;;;;;;-0.67;79.48;100674.02;1763914;79;21641;-74
2020/12/09 00:07:30;;;;;;;45.33;22.42;;;;;;;-0.67;79.49;100668.94;1786000;79;21629;-74
2020/12/09 00:09:56;;;;;;;46.37;23.50;;;;;;;-0.67;79.48;100668.94;1761867;79;21125;-74
2020/12/09 00:12:23;;;;;;;54.45;23.95;;;;;;;-0.68;79.50;100663.81;1792647;79;21094;-74
2020/12/09 00:14:49;;;;;;;49.48;24.82;;;;;;;-0.70;79.48;100670.12;1793404;79;21887;-74
2020/12/09 00:17:15;;;;;;;51.30;23.40;;;;;;;-0.70;79.52;100668.84;1782316;79;21114;-74
2020/12/09 00:19:42;;;;;;;46.35;23.22;;;;;;;-0.70;79.49;100671.80;1793147;79;21885;-74
2020/12/09 00:22:08;;;;;;;41.00;22.15;;;;;;;-0.71;79.52;100667.53;1780858;79;21121;-74
2020/12/09 00:24:35;;;;;;;49.25;22.35;;;;;;;-0.71;79.52;100668.80;1792754;79;21074;-74
2020/12/09 00:27:01;;;;;;;47.83;23.77;;;;;;;-0.73;79.55;100671.70;1793452;79;21871;-74
2020/12/09 00:29:27;;;;;;;47.73;23.57;;;;;;;-0.74;79.56;100674.65;1779378;79;21069;-74
2020/12/09 00:31:53;;;;;;;47.33;23.12;;;;;;;-0.74;79.58;100670.84;1791134;79;21500;-74
2020/12/09 00:34:19;;;;;;;51.40;24.57;;;;;;;-0.73;79.62;100665.36;1792729;79;21118;-74
2020/12/09 00:36:46;;;;;;;54.15;25.12;;;;;;;-0.71;79.62;100667.53;1793122;79;21089;-74
2020/12/09 00:39:12;;;;;;;45.43;22.98;;;;;;;-0.72;79.60;100680.64;1774059;79;21133;-74
2020/12/09 00:41:38;;;;;;;47.25;22.80;;;;;;;-0.72;79.63;100681.05;1793218;79;21934;-74
2020/12/09 00:44:04;;;;;;;49.27;24.55;;;;;;;-0.71;79.64;100666.27;1792903;79;21620;-74
2020/12/09 00:46:31;;;;;;;49.03;24.98;;;;;;;-0.71;79.65;100678.55;1779709;79;21112;-74
2020/12/09 00:48:57;;;;;;;45.28;22.50;;;;;;;-0.70;79.63;100675.61;1785889;79;21102;-75
2020/12/09 00:51:26;;;;;;;45.78;23.70;;;;;;;-0.71;79.64;100674.74;1762171;81;21102;-74
2020/12/09 00:53:53;;;;;;;44.35;24.10;;;;;;;-0.72;79.64;100667.94;1762105;81;21477;-74
2020/12/09 00:56:19;;;;;;;47.65;24.32;;;;;;;-0.72;79.69;100664.54;1772825;79;21261;-74
2020/12/09 00:58:45;;;;;;;52.38;23.00;;;;;;;-0.72;79.70;100674.28;1762009;80;21111;-74
2020/12/09 01:01:12;;;;;;;47.50;23.90;;;;;;;-0.71;79.73;100673.88;1775474;79;21106;-74
2020/12/09 01:03:40;;;;;;;42.75;23.83;;;;;;;-0.70;79.73;100667.98;1780563;78;21146;-74
2020/12/09 01:06:07;;;;;;;48.05;23.10;;;;;;;-0.70;79.74;100670.12;1773108;79;21491;-74
2020/12/09 01:08:35;;;;;;;53.75;25.43;;;;;;;-0.70;79.74;100674.34;1768996;80;21998;-74
2020/12/09 01:11:02;;;;;;;45.90;24.80;;;;;;;-0.68;79.81;100672.30;1790900;79;21810;-74
2020/12/09 01:13:28;;;;;;;46.95;24.65;;;;;;;-0.65;79.83;100674.47;1762158;79;21101;-74
2020/12/09 01:15:54;;;;;;;53.87;25.55;;;;;;;-0.63;79.86;100682.59;1767677;79;21094;-74
2020/12/09 01:18:21;;;;;;;46.30;24.92;;;;;;;-0.61;79.86;100675.88;1767585;79;21130;-74
2020/12/09 01:20:47;;;;;;;48.83;24.70;;;;;;;-0.58;79.89;100680.19;1762125;81;21575;-74
2020/12/09 01:23:14;;;;;;;47.95;23.87;;;;;;;-0.55;79.91;100685.36;1743716;81;21177;-74
2020/12/09 01:25:42;;;;;;;49.40;24.40;;;;;;;-0.52;79.90;100679.94;1791744;79;21133;-74
2020/12/09 01:28:08;;;;;;;56.53;26.35;;;;;;;-0.49;79.87;100679.16;1793565;79;21492;-74
2020/12/09 01:30:35;;;;;;;47.38;25.20;;;;;;;-0.46;79.94;100675.03;1759185;79;21459;-75
2020/12/09 01:33:01;;;;;;;44.00;23.25;;;;;;;-0.43;79.90;100669.19;1786209;79;21901;-75
2020/12/09 01:35:27;;;;;;;48.85;23.98;;;;;;;-0.41;79.89;100667.14;1762341;79;21116;-74
2020/12/09 01:37:54;;;;;;;49.20;23.77;;;;;;;-0.41;79.88;100667.14;1776319;79;21090;-74
2020/12/09 01:40:20;;;;;;;47.27;23.22;;;;;;;-0.39;79.89;100658.30;1769822;79;21125;-74
2020/12/09 01:42:50;;;;;;;46.60;23.38;;;;;;;-0.39;79.88;100659.56;1762282;79;21074;-75
2020/12/09 01:45:17;;;;;;;49.15;24.27;;;;;;;-0.39;79.90;100668.05;1793456;79;21956;-75
2020/12/09 01:47:45;;;;;;;46.98;22.40;;;;;;;-0.39;79.91;100665.51;1775514;79;21113;-74
2020/12/09 01:50:13;;;;;;;46.98;23.15;;;;;;;-0.38;79.94;100663.83;1767603;79;21534;-74
2020/12/09 01:52:40;;;;;;;51.58;23.38;;;;;;;-0.38;79.92;100664.69;1761920;81;21096;-74
2020/12/09 01:55:06;;;;;;;45.12;23.52;;;;;;;-0.36;79.94;100680.84;1767380;79;21614;-74
2020/12/09 01:57:33;;;;;;;49.85;24.95;;;;;;;-0.36;79.95;100682.52;1762149;79;22198;-74
2020/12/09 01:59:59;;;;;;;39.75;18.32;;;;;;;-0.36;79.99;100682.11;1777640;79;21101;-74
2020/12/09 02:02:25;;;;;;;44.10;23.45;;;;;;;-0.33;79.99;100691.50;1786675;79;21094;-74
2020/12/09 02:04:53;;;;;;;43.55;22.40;;;;;;;-0.33;80.00;100681.34;1793180;78;21392;-74
2020/12/09 02:07:22;;;;;;;45.85;23.15;;;;;;;-0.32;80.04;100691.09;1793112;79;21136;-74
2020/12/09 02:10:03;;;;;;;42.90;21.90;;;;;;;-0.30;80.06;100685.64;1769238;79;21163;-74
2020/12/09 02:12:34;;;;;;;44.10;23.25;;;;;;;-0.29;80.03;100688.64;1762276;79;21521;-74
2020/12/09 02:15:01;;;;;;;49.98;24.05;;;;;;;-0.27;80.10;100688.27;1743063;80;21097;-74
2020/12/09 02:17:27;;;;;;;46.58;23.02;;;;;;;-0.26;80.11;100686.19;1762278;79;21120;-74
2020/12/09 02:19:53;;;;;;;51.18;23.60;;;;;;;-0.23;80.12;100690.09;1778033;79;21102;-74
2020/12/09 02:24:53;;;;;;;45.87;21.93;;;;;;;-0.19;80.19;100680.05;1802090;77;23396;-74
2020/12/09 02:27:19;;;;;;;42.03;22.50;;;;;;;-0.21;80.13;100689.72;1819439;78;22091;-74
2020/12/09 02:29:46;;;;;;;38.33;21.55;;;;;;;-0.20;80.17;100687.22;1818918;78;22216;-74
2020/12/09 02:32:12;;;;;;;47.95;24.20;;;;;;;-0.19;80.17;100686.41;1817524;78;20960;-74
2020/12/09 02:34:38;;;;;;;;;;;;;;;-0.16;80.18;100675.47;1795794;78;21118;-75
2020/12/09 02:37:04;;;;;;;46.73;22.25;;;;;;;-0.15;80.21;100671.70;1817304;78;26590;-74
2020/12/09 02:39:34;;;;;;;42.08;22.60;;;;;;;-0.15;80.18;100670.43;1814871;78;21452;-73
2020/12/09 02:42:01;;;;;;;44.85;21.82;;;;;;;-0.15;80.14;100673.38;1800233;78;21365;-74
2020/12/09 02:44:28;;;;;;;39.67;21.27;;;;;;;-0.17;80.18;100677.55;1820409;78;20956;-75
2020/12/09 02:46:54;;;;;;;45.05;21.40;;;;;;;-0.16;80.19;100667.84;1802977;78;20980;-74
2020/12/09 02:49:22;;;;;;;32.75;16.80;;;;;;;-0.15;80.22;100669.16;1805463;78;21090;-73
2020/12/09 02:51:49;;;;;;;49.73;22.25;;;;;;;-0.14;80.24;100672.15;1806859;78;21099;-73
2020/12/09 02:54:16;;;;;;;42.62;22.17;;;;;;;-0.14;80.24;100677.64;1805067;78;21274;-73
2020/12/09 02:56:43;;;;;;;49.03;22.65;;;;;;;-0.14;80.23;100667.06;1815066;78;21482;-73
2020/12/09 02:59:09;;;;;;;;;;;;;;;-0.14;80.23;100668.75;1821220;78;21174;-73
2020/12/09 03:01:35;;;;;;;45.45;22.00;;;;;;;-0.14;80.28;100661.13;1799943;78;20307;-73
2020/12/09 03:04:02;;;;;;;42.20;22.35;;;;;;;-0.15;80.26;100665.76;1791113;78;21163;-74
2020/12/09 03:06:29;;;;;;;50.65;23.87;;;;;;;-0.14;80.26;100661.13;1812825;78;25144;-74
2020/12/09 03:08:55;;;;;;;44.08;22.20;;;;;;;-0.17;80.25;100664.44;1818739;78;21110;-74
2020/12/09 03:11:22;;;;;;;46.33;22.40;;;;;;;-0.18;80.21;100660.59;1792234;78;21095;-74
2020/12/09 03:13:47;;;;;;;;;;;;;;;-0.20;80.27;100655.46;1823438;78;21091;-74
2020/12/09 03:16:14;;;;;;;52.45;25.77;;;;;;;-0.21;80.27;100654.15;1820709;78;20274;-74
2020/12/09 03:18:40;;;;;;;41.18;21.68;;;;;;;-0.23;80.27;100655.38;1820420;78;22482;-74
2020/12/09 03:21:07;;;;;;;40.83;22.35;;;;;;;-0.27;80.24;100657.37;1801214;78;21194;-74
2020/12/09 03:23:35;;;;;;;44.30;23.02;;;;;;;-0.28;80.31;100654.38;1817816;78;21678;-75
2020/12/09 03:26:01;;;;;;;49.25;22.17;;;;;;;-0.28;80.33;100664.55;1807640;78;21217;-74
2020/12/09 03:28:28;;;;;;;44.15;22.22;;;;;;;-0.28;80.34;100650.58;1816589;78;21560;-74
2020/12/09 03:30:55;;;;;;;38.65;20.30;;;;;;;-0.28;80.33;100666.22;1799137;78;21405;-74
2020/12/09 03:33:21;;;;;;;;;;;;;;;-0.29;80.32;100660.69;1809570;78;21462;-74
2020/12/09 03:35:47;;;;;;;43.92;21.73;;;;;;;-0.31;80.38;100663.59;1802592;78;20307;-74
2020/12/09 03:38:13;;;;;;;40.55;21.57;;;;;;;-0.31;80.36;100668.68;1806361;78;21166;-74
2020/12/09 03:40:40;;;;;;;43.70;21.62;;;;;;;-0.34;80.34;100668.18;1810638;78;21201;-74
2020/12/09 03:43:06;;;;;;;44.35;23.92;;;;;;;-0.35;80.36;100669.86;1814195;78;21352;-75
2020/12/09 03:45:32;;;;;;;49.00;26.23;;;;;;;-0.36;80.37;100676.16;1814404;78;21218;-75
2020/12/09 03:48:00;;;;;;;45.00;22.77;;;;;;;-0.39;80.35;100664.23;1808653;78;21151;-74
2020/12/09 03:50:26;;;;;;;49.53;21.62;;;;;;;-0.38;80.42;100674.85;1813415;78;21182;-74
2020/12/09 03:52:53;;;;;;;49.50;23.85;;;;;;;-0.38;80.41;100678.66;1816046;78;21171;-74
2020/12/09 03:55:19;;;;;;;42.45;22.48;;;;;;;-0.42;80.37;100672.18;1812330;78;21168;-74
2020/12/09 03:57:45;;;;;;;39.18;20.88;;;;;;;-0.38;80.41;100678.66;1797893;78;21162;-74
2020/12/09 04:00:11;;;;;;;45.75;23.55;;;;;;;-0.39;80.36;100679.48;1815108;78;21480;-74
2020/12/09 04:02:37;;;;;;;45.52;23.00;;;;;;;-0.41;80.36;100668.82;1800080;78;21176;-74
2020/12/09 04:05:05;;;;;;;45.38;22.73;;;;;;;-0.40;80.41;100671.81;1807070;78;21206;-74
2020/12/09 04:07:31;;;;;;;43.55;22.25;;;;;;;-0.41;80.36;100676.44;1786081;78;21927;-74
2020/12/09 04:09:58;;;;;;;47.95;22.48;;;;;;;-0.43;80.36;100676.39;1811015;78;21122;-74
2020/12/09 04:12:24;;;;;;;41.85;21.37;;;;;;;-0.44;80.39;100673.81;1817160;78;21757;-74
2020/12/09 04:14:52;;;;;;;40.10;21.93;;;;;;;-0.44;80.38;100680.16;1810085;78;20979;-74
2020/12/09 04:17:19;;;;;;;35.17;20.00;;;;;;;-0.45;80.38;100673.36;1813407;78;21614;-74
2020/12/09 04:19:47;;;;;;;39.00;20.10;;;;;;;-0.46;80.35;100671.23;1804049;78;22089;-74
2020/12/09 04:22:14;;;;;;;37.05;19.98;;;;;;;-0.47;80.35;100672.45;1805221;78;21131;-74
2020/12/09 04:27:20;;;;;;;46.87;25.73;;;;;;;-0.47;80.38;100677.53;1828061;76;21997;-74
2020/12/09 04:29:46;;;;;;;;;;;;;;;-0.51;80.36;100678.25;1814544;79;21194;-75
2020/12/09 04:32:12;;;;;;;;;;;;;;;-0.54;80.38;100675.25;1807433;78;22138;-73
2020/12/09 04:34:38;;;;;;;43.63;23.30;;;;;;;-0.56;80.40;100676.88;1809927;79;20223;-74
2020/12/09 04:37:05;;;;;;;43.80;22.22;;;;;;;-0.59;80.39;100674.66;1767190;79;21236;-74
2020/12/09 04:39:32;;;;;;;41.18;20.30;;;;;;;-0.60;80.39;100672.53;1779463;79;21233;-74
2020/12/09 04:41:58;;;;;;;34.95;20.23;;;;;;;-0.61;80.40;100677.56;1811015;79;21162;-74
2020/12/09 04:44:24;;;;;;;36.98;21.07;;;;;;;-0.64;80.42;100675.79;1811553;78;21035;-73
2020/12/09 04:46:52;;;;;;;39.88;20.90;;;;;;;-0.64;80.45;100683.41;1811722;79;23865;-74
2020/12/09 04:49:21;;;;;;;47.25;21.23;;;;;;;-0.67;80.42;100694.33;1811205;78;21035;-74
2020/12/09 04:52:11;;;;;;;40.33;20.95;;;;;;;-0.69;80.41;100694.70;1778389;79;21468;-74
2020/12/09 04:54:43;;;;;;;37.40;21.05;;;;;;;-0.69;80.42;100697.64;1655256;84;21293;-74
2020/12/09 04:57:17;;;;;;;38.40;19.75;;;;;;;-0.70;80.46;100708.20;1678281;85;21817;-73
2020/12/09 04:59:49;;;;;;;33.45;19.80;;;;;;;-0.71;80.44;100686.58;1679994;85;21882;-73
2020/12/09 05:02:15;;;;;;;36.25;19.17;;;;;;;-0.72;80.42;100695.00;1682779;83;21227;-73
2020/12/09 05:04:41;;;;;;;;;;;;;;;-0.74;80.43;100692.83;1700969;83;21235;-75
2020/12/09 05:07:10;;;;;;;37.58;18.87;;;;;;;-0.76;80.41;100695.73;1680297;85;20416;-75
2020/12/09 05:09:43;;;;;;;34.80;19.12;;;;;;;-0.78;80.44;100697.36;1679415;83;21298;-75
2020/12/09 05:12:15;;;;;;;35.50;19.70;;;;;;;-0.80;80.47;100705.33;1679669;83;21702;-75
2020/12/09 05:14:49;;;;;;;44.95;21.73;;;;;;;-0.81;80.49;100715.03;1681303;85;21261;-75
2020/12/09 05:17:19;;;;;;;45.85;21.60;;;;;;;-0.82;80.47;100718.37;1681218;83;21289;-75
2020/12/09 05:19:48;;;;;;;38.70;19.30;;;;;;;-0.83;80.50;100721.33;1683315;83;21151;-75
2020/12/09 05:22:17;;;;;;;40.17;20.62;;;;;;;-0.84;80.45;100720.88;1680643;84;21296;-75
2020/12/09 05:24:45;;;;;;;40.78;20.72;;;;;;;-0.85;80.47;100722.95;1679632;83;21576;-75
2020/12/09 05:27:15;;;;;;;40.88;20.27;;;;;;;-0.85;80.47;100733.52;1677029;83;21158;-75
2020/12/09 05:29:49;;;;;;;36.55;19.00;;;;;;;-0.85;80.47;100728.44;1680608;85;21187;-75
2020/12/09 05:32:16;;;;;;;40.92;18.52;;;;;;;-0.86;80.50;100727.58;1748344;79;21107;-75
2020/12/09 05:34:42;;;;;;;;;;;;;;;-0.86;80.49;100728.84;1783952;79;21377;-75
2020/12/09 05:37:12;;;;;;;34.73;17.55;;;;;;;-0.85;80.51;100738.59;1809022;79;20627;-75
2020/12/09 05:39:55;;;;;;;38.95;18.95;;;;;;;-0.86;80.52;100745.34;1807060;79;21066;-75
2020/12/09 05:42:23;;;;;;;37.83;18.87;;;;;;;-0.85;80.54;100734.78;1806090;78;21106;-75
2020/12/09 05:44:50;;;;;;;36.23;18.67;;;;;;;-0.86;80.56;100745.34;1801332;78;21099;-75
2020/12/09 05:47:20;;;;;;;42.73;19.57;;;;;;;-0.85;80.57;100741.99;1788928;78;21102;-75
2020/12/09 05:49:46;;;;;;;39.27;18.98;;;;;;;-0.82;80.55;100733.61;1811288;79;20981;-75
2020/12/09 05:52:19;;;;;;;39.95;19.73;;;;;;;-0.83;80.55;100741.63;1792088;79;21347;-75
2020/12/09 05:54:52;;;;;;;42.40;20.15;;;;;;;-0.84;80.51;100729.76;1787847;79;21107;-75
2020/12/09 05:57:26;;;;;;;43.25;20.02;;;;;;;-0.85;80.50;100737.33;1794320;79;21098;-75
2020/12/09 05:59:53;;;;;;;42.53;19.55;;;;;;;-0.86;80.52;100745.34;1799951;79;21508;-75
2020/12/09 06:02:21;;;;;;;39.03;19.37;;;;;;;-0.88;80.50;100739.36;1795473;78;21116;-74
2020/12/09 06:04:59;;;;;;;44.05;20.23;;;;;;;-0.89;80.53;100746.92;1801801;79;21107;-74
2020/12/09 06:07:29;;;;;;;37.20;18.15;;;;;;;-0.89;80.55;100743.98;1791691;78;21004;-73
2020/12/09 06:10:14;;;;;;;46.20;20.02;;;;;;;-0.91;80.53;100749.81;1803785;79;21143;-75
2020/12/09 06:12:59;;;;;;;43.10;20.48;;;;;;;-0.93;80.52;100747.23;1802367;79;21143;-73
2020/12/09 06:15:33;;;;;;;41.55;20.35;;;;;;;-0.94;80.53;100746.77;1804904;78;21397;-75
2020/12/09 06:18:13;;;;;;;42.85;21.17;;;;;;;-0.95;80.53;100757.73;1772943;79;21118;-76
2020/12/09 06:20:41;;;;;;;46.25;21.10;;;;;;;-0.97;80.51;100745.41;1790523;78;21093;-76
2020/12/09 06:23:18;;;;;;;37.50;18.45;;;;;;;-1.00;80.54;100739.82;1780474;79;21111;-75
2020/12/09 06:25:45;;;;;;;;;;;;;;;-1.01;80.55;100733.02;1806030;78;21209;-75
2020/12/09 06:28:19;;;;;;;39.73;18.92;;;;;;;-1.03;80.57;100742.26;1809505;78;20248;-75
2020/12/09 06:30:46;;;;;;;37.67;20.00;;;;;;;-1.06;80.54;100736.25;1796185;78;21122;-76
2020/12/09 06:33:29;;;;;;;33.60;18.90;;;;;;;-1.08;80.61;100740.01;1807051;78;20965;-75
2020/12/09 06:36:20;;;;;;;36.70;19.07;;;;;;;-1.08;80.62;100748.03;1809376;78;21101;-75
2020/12/09 06:39:08;;;;;;;39.08;18.67;;;;;;;-1.08;80.64;100745.49;1809203;78;21967;-75
2020/12/09 06:41:37;;;;;;;41.02;20.55;;;;;;;-1.09;80.66;100742.50;1782933;78;21133;-75
2020/12/09 06:44:11;;;;;;;39.75;21.97;;;;;;;-1.09;80.67;100739.96;1793014;78;21492;-75
2020/12/09 06:46:48;;;;;;;39.78;19.40;;;;;;;-1.09;80.68;100743.36;1820788;78;21188;-75
2020/12/09 06:49:33;;;;;;;34.92;18.25;;;;;;;-1.10;80.69;100738.23;1796107;78;21236;-75
2020/12/09 06:52:04;;;;;;;35.50;19.00;;;;;;;-1.11;80.67;100741.18;1792880;78;21464;-75
2020/12/09 06:54:47;;;;;;;37.98;19.48;;;;;;;-1.10;80.70;100748.38;1794678;78;21110;-75
2020/12/09 06:57:33;;;;;;;39.38;20.08;;;;;;;-1.10;80.71;100757.27;1814402;78;21110;-75
2020/12/09 07:00:18;;;;;;;42.58;19.98;;;;;;;-1.11;80.70;100753.86;1796329;78;21095;-75
2020/12/09 07:02:50;;;;;;;42.00;21.00;;;;;;;-1.10;80.71;100766.14;1804877;78;21103;-75
2020/12/09 07:05:19;;;;;;;41.40;20.88;;;;;;;-1.09;80.71;100763.66;1799863;78;21221;-75
2020/12/09 07:07:51;;;;;;;39.03;21.42;;;;;;;-1.08;80.73;100772.13;1808359;78;21106;-75
2020/12/09 07:10:24;;;;;;;49.40;21.42;;;;;;;-1.07;80.74;100768.78;1814853;78;21182;-75
2020/12/09 07:13:07;;;;;;;37.65;20.27;;;;;;;-1.06;80.74;100773.91;1810519;78;21177;-75
2020/12/09 07:15:35;;;;;;;48.33;21.73;;;;;;;-1.05;80.74;100782.38;1810177;78;21618;-73
2020/12/09 07:18:01;;;;;;;43.75;21.02;;;;;;;-1.04;80.74;100776.06;1779503;78;21213;-73
2020/12/09 07:20:27;;;;;;;;;;;;;;;-1.02;80.76;100777.38;1813138;78;21758;-73
2020/12/09 07:22:53;;;;;;;;;;;;;;;-1.00;80.83;100784.64;1809871;78;20230;-73
2020/12/09 07:25:20;;;;;;;31.12;16.57;;;;;;;-0.97;80.83;100784.73;1806790;78;20697;-73
2020/12/09 07:27:47;;;;;;;45.28;21.45;;;;;;;-0.95;80.85;100790.73;1788504;78;21158;-73
2020/12/09 07:30:16;;;;;;;43.33;21.42;;;;;;;-0.87;81.11;100794.39;1767068;78;21371;-73
2020/12/09 07:32:42;;;;;;;40.00;20.65;;;;;;;-0.87;81.11;100794.39;1781318;79;21143;-73
2020/12/09 07:35:12;;;;;;;46.80;21.62;;;;;;;-0.82;80.86;100799.61;1780053;79;20955;-73
2020/12/09 07:37:43;;;;;;;37.20;20.77;;;;;;;-0.78;80.89;100803.57;1779024;78;21087;-73
2020/12/09 07:40:19;;;;;;;41.55;21.30;;;;;;;-0.74;80.88;100801.59;1779974;79;21363;-73
2020/12/09 07:42:45;;;;;;;43.68;21.62;;;;;;;-0.69;80.88;100795.39;1783444;79;21004;-73
2020/12/09 07:45:16;;;;;;;52.55;24.30;;;;;;;-0.65;80.89;100798.89;1762424;79;21124;-72
2020/12/09 07:47:43;;;;;;;43.65;21.45;;;;;;;-0.62;80.86;100801.12;1778424;79;21115;-72
2020/12/09 07:50:09;;;;;;;42.33;22.37;;;;;;;-0.57;80.87;100800.00;1765589;79;20950;-73
2020/12/09 07:52:41;;;;;;;42.53;20.80;;;;;;;-0.54;80.87;100800.09;1781106;79;21115;-73
2020/12/09 07:55:13;;;;;;;42.50;21.85;;;;;;;-0.50;80.83;100795.54;1774521;79;21103;-73
2020/12/09 07:57:40;;;;;;;39.35;20.35;;;;;;;-0.47;80.86;100798.17;1790088;79;21095;-73
2020/12/09 08:00:11;;;;;;;38.55;20.60;;;;;;;-0.42;80.87;100805.53;1780887;79;20973;-73
2020/12/09 08:02:40;;;;;;;40.43;20.43;;;;;;;-0.39;80.88;100807.77;1781853;78;21084;-73
2020/12/09 08:05:17;;;;;;;43.17;20.35;;;;;;;-0.35;80.90;100812.53;1780346;79;21166;-72
2020/12/09 08:07:52;;;;;;;37.23;20.20;;;;;;;-0.31;80.91;100811.81;1782690;79;21629;-73
2020/12/09 08:10:25;;;;;;;41.30;20.30;;;;;;;-0.26;80.88;100814.50;1790519;78;21187;-73
2020/12/09 08:13:10;;;;;;;43.55;21.02;;;;;;;-0.22;80.87;100821.40;1784390;79;21175;-73
2020/12/09 08:16:00;;;;;;;40.03;20.57;;;;;;;-0.19;80.88;100825.30;1728905;82;21623;-74
2020/12/09 08:18:27;;;;;;;41.13;20.92;;;;;;;-0.17;80.86;100822.41;1789551;79;21191;-74
2020/12/09 08:20:54;;;;;;;43.85;21.30;;;;;;;-0.14;80.88;100813.60;1781881;79;21537;-73
2020/12/09 08:23:22;;;;;;;42.15;20.05;;;;;;;-0.11;80.92;100808.61;1788973;79;21181;-73
2020/12/09 08:25:54;;;;;;;42.38;21.42;;;;;;;-0.10;80.89;100806.11;1790057;79;21223;-73
2020/12/09 08:28:24;;;;;;;49.23;23.18;;;;;;;-0.06;80.91;100808.34;1790744;79;21366;-73
2020/12/09 08:30:52;;;;;;;43.40;22.42;;;;;;;-0.04;80.97;100796.55;1788077;79;21179;-73
2020/12/09 08:33:26;;;;;;;39.42;20.62;;;;;;;-0.01;80.94;100800.04;1781672;79;21216;-73
2020/12/09 08:36:01;;;;;;;48.00;21.75;;;;;;;0.01;80.92;100806.41;1774595;79;21195;-72
2020/12/09 08:38:35;;;;;;;40.75;20.12;;;;;;;0.03;80.90;100806.45;1760620;79;21632;-72
2020/12/09 08:41:12;;;;;;;40.70;20.72;;;;;;;0.03;80.92;100807.72;1783075;79;21179;-72
2020/12/09 08:43:42;;;;;;;38.70;20.65;;;;;;;0.04;80.93;100817.94;1754225;80;28036;-73
2020/12/09 08:46:11;;;;;;;42.13;20.62;;;;;;;0.05;80.92;100813.72;1772568;79;22584;-73
2020/12/09 08:48:39;;;;;;;41.15;21.12;;;;;;;0.07;80.97;100812.08;1779792;79;21243;-73
2020/12/09 08:51:07;;;;;;;43.95;21.17;;;;;;;0.08;80.98;100817.62;1779200;79;21199;-73
2020/12/09 08:53:33;;;;;;;40.70;20.12;;;;;;;0.09;80.99;100824.02;1786337;78;21195;-72
2020/12/09 08:56:00;;;;;;;41.18;20.25;;;;;;;0.10;80.97;100819.39;1758077;79;21195;-72
2020/12/09 08:58:26;;;;;;;40.52;20.35;;;;;;;0.11;81.00;100822.38;1790030;78;26728;-73
2020/12/09 09:00:52;;;;;;;38.70;19.87;;;;;;;0.13;81.03;100823.70;1787279;79;21183;-73
2020/12/09 09:03:25;;;;;;;40.43;19.90;;;;;;;0.15;81.03;100831.83;1787689;79;21665;-73
2020/12/09 09:05:55;;;;;;;39.38;18.40;;;;;;;0.15;81.03;100828.02;1781839;79;21186;-73
2020/12/09 09:08:21;;;;;;;41.95;20.02;;;;;;;0.18;81.09;100829.38;1776346;79;21691;-73
2020/12/09 09:10:48;;;;;;;45.17;21.07;;;;;;;0.18;81.01;100829.78;1784009;78;22054;-72
2020/12/09 09:13:14;;;;;;;;;;;;;;;0.16;81.03;100827.20;1784450;79;21203;-72
2020/12/09 09:15:41;;;;;;;37.13;20.10;;;;;;;0.16;81.05;100827.20;1789313;78;20285;-72
2020/12/09 09:18:08;;;;;;;;;;;;;;;0.17;81.07;100822.97;1775920;79;21216;-72
2020/12/09 09:20:35;;;;;;;42.67;20.30;;;;;;;0.16;81.10;100823.37;1784650;79;20288;-73
2020/12/09 09:23:03;;;;;;;42.17;20.27;;;;;;;0.14;81.08;100828.83;1787342;79;21215;-72
2020/12/09 09:25:29;;;;;;;43.33;19.80;;;;;;;0.15;81.14;100838.59;1787114;79;21453;-73
2020/12/09 09:27:56;;;;;;;43.83;21.15;;;;;;;0.15;81.15;100833.51;1793224;79;21225;-73
2020/12/09 09:30:23;;;;;;;48.13;20.88;;;;;;;0.17;81.15;100830.19;1793599;79;21639;-73
2020/12/09 09:32:49;;;;;;;41.95;19.27;;;;;;;0.19;81.13;100834.05;1788068;79;21183;-73
2020/12/09 09:35:17;;;;;;;39.15;18.98;;;;;;;0.17;81.13;100852.22;1795867;79;21175;-72
2020/12/09 09:37:43;;;;;;;35.00;18.57;;;;;;;0.19;81.12;100853.13;1784629;79;21142;-73
2020/12/09 09:40:11;;;;;;;36.80;18.80;;;;;;;0.18;81.11;100839.55;1772879;79;27569;-73
2020/12/09 09:42:38;;;;;;;40.15;19.73;;;;;;;0.18;81.13;100842.09;1797385;79;21076;-73
2020/12/09 09:45:07;;;;;;;37.95;18.25;;;;;;;0.19;81.11;100853.13;1790797;79;21091;-72
2020/12/09 09:47:34;;;;;;;37.83;19.55;;;;;;;0.21;81.20;100851.48;1787284;79;21545;-72
2020/12/09 09:50:00;;;;;;;41.15;19.30;;;;;;;0.22;81.12;100846.86;1771848;79;21130;-72
2020/12/09 09:52:26;;;;;;;46.20;20.37;;;;;;;0.22;81.12;100842.63;1795586;79;21103;-72
2020/12/09 09:54:52;;;;;;;44.05;20.88;;;;;;;0.23;81.14;100844.77;1788958;79;21099;-72
2020/12/09 09:57:19;;;;;;;37.42;20.82;;;;;;;0.24;81.16;100857.94;1777501;79;21068;-73
2020/12/09 09:59:45;;;;;;;44.33;19.40;;;;;;;0.25;81.17;100858.39;1791904;79;21260;-73
2020/12/09 10:02:11;;;;;;;41.40;19.90;;;;;;;0.26;81.12;100852.48;1775616;78;21437;-73
2020/12/09 10:04:37;;;;;;;45.70;20.62;;;;;;;0.24;81.11;100851.58;1778788;79;21167;-73
2020/12/09 10:07:03;;;;;;;46.20;20.95;;;;;;;0.20;81.09;100846.81;1785329;79;21087;-73
2020/12/09 10:09:30;;;;;;;40.83;19.65;;;;;;;0.20;81.16;100848.08;1785964;79;21461;-73
2020/12/09 10:11:58;;;;;;;38.13;19.57;;;;;;;0.21;81.15;100847.27;1788906;79;21093;-73
2020/12/09 10:14:24;;;;;;;38.60;19.85;;;;;;;0.21;81.17;100848.53;1778267;79;21795;-73
2020/12/09 10:16:51;;;;;;;39.48;19.77;;;;;;;0.20;81.16;100847.22;1777979;79;21103;-73
2020/12/09 10:19:18;;;;;;;42.65;21.75;;;;;;;0.08;81.11;100827.37;1798428;79;21500;-73
2020/12/09 10:21:44;;;;;;;47.25;21.10;;;;;;;0.18;81.19;100840.81;1784651;79;21235;-73
2020/12/09 10:24:10;;;;;;;41.25;19.77;;;;;;;0.17;81.17;100846.72;1797498;79;22302;-73
2020/12/09 10:26:39;;;;;;;44.50;19.65;;;;;;;0.19;81.18;100850.58;1786812;79;21210;-73
2020/12/09 10:29:08;;;;;;;43.02;21.60;;;;;;;0.16;81.12;100847.54;1784378;79;21218;-72
2020/12/09 10:31:46;;;;;;;35.83;18.75;;;;;;;0.15;81.17;100842.41;1793019;79;21542;-72
2020/12/09 10:34:15;;;;;;;43.55;20.92;;;;;;;0.15;81.16;100847.48;1798295;79;21083;-73
2020/12/09 10:36:48;;;;;;;38.23;18.98;;;;;;;0.14;81.19;100840.27;1778148;79;21279;-73
2020/12/09 10:39:19;;;;;;;37.03;18.80;;;;;;;0.14;81.25;100844.09;1780092;79;21142;-72
2020/12/09 10:41:46;;;;;;;39.60;18.45;;;;;;;0.14;81.21;100841.95;1793542;79;21508;-72
2020/12/09 10:44:12;;;;;;;;;;;;;;;0.14;81.24;100843.22;1798986;79;21153;-73
2020/12/09 10:46:39;;;;;;;;;;;;;;;0.13;81.29;100838.55;1791752;79;20230;-73
2020/12/09 10:49:08;;;;;;;44.58;19.10;;;;;;;0.15;81.28;100845.81;1793975;79;21302;-73
2020/12/09 10:51:34;;;;;;;43.87;20.20;;;;;;;0.15;81.29;100845.81;1792362;79;21758;-73
2020/12/09 10:54:01;;;;;;;45.83;21.42;;;;;;;0.15;81.27;100848.35;1797190;79;20945;-73
2020/12/09 10:56:28;;;;;;;;;;;;;;;0.15;81.26;100840.72;1798012;79;21087;-73
2020/12/09 10:58:55;;;;;;;41.30;19.73;;;;;;;0.15;81.28;100847.48;1797251;79;20264;-73
2020/12/09 11:01:25;;;;;;;40.50;19.57;;;;;;;0.14;81.29;100851.72;1796284;79;21344;-73
2020/12/09 11:03:55;;;;;;;47.17;20.88;;;;;;;0.13;81.29;100849.12;1791640;79;21096;-73
2020/12/09 11:06:30;;;;;;;42.93;21.12;;;;;;;0.13;81.29;100847.85;1795300;79;21106;-73
2020/12/09 11:08:58;;;;;;;49.33;20.60;;;;;;;0.13;81.30;100846.58;1787323;79;21131;-73
2020/12/09 11:11:25;;;;;;;46.15;21.00;;;;;;;0.12;81.31;100847.40;1779526;79;21127;-73
2020/12/09 11:13:52;;;;;;;46.28;22.05;;;;;;;0.11;81.32;100835.09;1775859;79;21222;-72
2020/12/09 11:16:18;;;;;;;;;;;;;;;0.13;81.41;100836.41;1795000;79;21917;-72
2020/12/09 11:18:44;;;;;;;;;;;;;;;0.15;81.32;100827.15;1779432;79;20586;-72
2020/12/09 11:21:13;;;;;;;;;;;;;;;0.13;81.34;100831.33;1788831;79;20256;-73
2020/12/09 11:23:39;;;;;;;47.45;21.50;;;;;;;0.14;81.40;100836.87;1774147;79;20247;-73
2020/12/09 11:26:08;;;;;;;53.02;23.18;;;;;;;0.13;81.37;100828.38;1780774;79;21340;-74
2020/12/09 11:28:35;;;;;;;44.93;21.57;;;;;;;0.16;81.40;100828.88;1789948;79;21134;-73